createdAt,value
2023-05-12T00:00:08.279Z,70.10
2023-05-12T00:02:38.321Z,69.69
2023-05-12T00:05:07.644Z,69.57
2023-05-12T00:07:36.574Z,69.58
2023-05-12T00:10:05.670Z,70.17
2023-05-12T00:12:34.291Z,69.89
2023-05-12T00:15:02.951Z,71.99
2023-05-12T00:17:31.524Z,70.70
2023-05-12T00:20:01.653Z,74.08
2023-05-12T00:22:30.073Z,73.89
2023-05-12T00:24:58.667Z,72.39
2023-05-12T00:27:27.224Z,71.15
2023-05-12T00:29:55.714Z,72.18
2023-05-12T00:32:24.208Z,72.78
2023-05-12T00:34:54.550Z,71.75
2023-05-12T00:37:24.586Z,72.25
2023-05-12T00:39:53.073Z,71.53
2023-05-12T00:42:21.598Z,72.48
2023-05-12T00:44:50.191Z,72.51
2023-05-12T00:47:20.388Z,72.35
2023-05-12T00:49:48.959Z,72.90
2023-05-12T00:52:17.423Z,73.71
2023-05-12T00:54:48.045Z,71.90
2023-05-12T00:57:16.572Z,74.74
2023-05-12T00:59:45.052Z,74.57
2023-05-12T01:02:13.632Z,73.97
2023-05-12T01:04:42.176Z,74.52
2023-05-12T01:07:18.182Z,74.49
2023-05-12T01:09:48.053Z,74.37
2023-05-12T01:12:16.762Z,73.84
2023-05-12T01:14:45.288Z,75.78
2023-05-12T01:17:15.526Z,74.92
2023-05-12T01:19:47.751Z,77.23
2023-05-12T01:22:17.760Z,74.97
2023-05-12T01:24:55.447Z,74.99
2023-05-12T01:27:27.673Z,75.41
2023-05-12T01:29:59.395Z,74.75
2023-05-12T01:32:28.014Z,75.87
2023-05-12T01:34:56.588Z,78.42
2023-05-12T01:37:27.094Z,77.41
2023-05-12T01:39:55.823Z,76.29
2023-05-12T01:42:25.961Z,75.97
2023-05-12T01:44:54.465Z,78.19
2023-05-12T01:47:23.038Z,76.43
2023-05-12T01:49:51.615Z,77.58
2023-05-12T01:52:20.694Z,76.00
2023-05-12T01:54:49.304Z,76.35
2023-05-12T01:57:17.794Z,76.22
2023-05-12T01:59:47.691Z,76.41
2023-05-12T02:02:16.367Z,75.84
2023-05-12T02:04:44.991Z,76.00
2023-05-12T02:07:13.430Z,75.94
2023-05-12T02:09:42.039Z,75.57
2023-05-12T02:12:11.118Z,76.31
2023-05-12T02:14:39.708Z,76.03
2023-05-12T02:17:09.829Z,75.77
2023-05-12T02:19:38.338Z,75.52
2023-05-12T02:22:06.960Z,75.63
2023-05-12T02:24:35.532Z,76.02
2023-05-12T02:27:04.012Z,76.11
2023-05-12T02:29:32.605Z,75.45
2023-05-12T02:32:05.987Z,76.26
2023-05-12T02:34:43.042Z,76.12
2023-05-12T02:37:11.803Z,76.02
2023-05-12T02:39:40.450Z,75.80
2023-05-12T02:42:09.464Z,76.95
2023-05-12T02:44:37.983Z,76.69
2023-05-12T02:47:07.103Z,77.06
2023-05-12T02:49:37.595Z,76.93
2023-05-12T02:52:07.028Z,76.84
2023-05-12T02:54:35.596Z,77.35
2023-05-12T02:57:07.074Z,77.05
2023-05-12T02:59:36.507Z,77.09
2023-05-12T03:02:05.829Z,78.09
2023-05-12T03:04:34.550Z,78.68
2023-05-12T03:07:04.786Z,78.47
2023-05-12T03:09:33.501Z,78.34
2023-05-12T03:12:02.168Z,78.45
2023-05-12T03:14:30.749Z,78.39
2023-05-12T03:16:59.425Z,78.96
2023-05-12T03:19:28.120Z,78.79
2023-05-12T03:21:56.975Z,78.49
2023-05-12T03:24:26.963Z,79.07
2023-05-12T03:26:55.464Z,79.90
2023-05-12T03:29:24.850Z,78.89
2023-05-12T03:31:53.446Z,79.14
2023-05-12T03:34:22.113Z,78.75
2023-05-12T03:36:50.800Z,79.82
2023-05-12T03:39:19.411Z,79.49
2023-05-12T03:41:49.528Z,80.57
2023-05-12T03:44:19.041Z,80.12
2023-05-12T03:46:47.882Z,79.99
2023-05-12T03:49:16.713Z,80.03
2023-05-12T03:51:45.311Z,80.60
2023-05-12T03:54:14.018Z,79.64
2023-05-12T03:56:42.593Z,81.26
2023-05-12T03:59:13.138Z,80.46
2023-05-12T04:01:41.976Z,80.62
2023-05-12T04:04:10.992Z,81.40
2023-05-12T04:06:39.721Z,80.76
2023-05-12T04:09:08.300Z,80.50
2023-05-12T04:11:37.317Z,81.00
2023-05-12T04:14:06.299Z,81.55
2023-05-12T04:16:37.073Z,80.74
2023-05-12T04:19:05.835Z,80.42
2023-05-12T04:21:34.521Z,81.40
2023-05-12T04:24:03.096Z,81.46
2023-05-12T04:26:31.580Z,81.59
2023-05-12T04:29:00.189Z,82.40
2023-05-12T04:31:28.932Z,81.45
2023-05-12T04:33:58.893Z,81.07
2023-05-12T04:36:28.714Z,82.78
2023-05-12T04:38:57.512Z,82.31
2023-05-12T04:41:26.401Z,82.15
2023-05-12T04:46:26.574Z,82.05
2023-05-12T04:48:55.369Z,81.84
2023-05-12T04:51:25.540Z,82.42
2023-05-12T04:53:54.056Z,82.31
2023-05-12T04:56:23.259Z,83.05
2023-05-12T04:58:52.023Z,82.60
2023-05-12T05:01:20.577Z,81.98
2023-05-12T05:03:49.893Z,82.47
2023-05-12T05:06:19.166Z,82.38
2023-05-12T05:08:49.067Z,82.63
2023-05-12T05:11:17.558Z,83.61
2023-05-12T05:13:46.047Z,83.50
2023-05-12T05:16:14.942Z,83.48
2023-05-12T05:18:46.916Z,83.01
2023-05-12T05:21:15.731Z,84.66
2023-05-12T05:23:44.301Z,83.55
2023-05-12T05:26:19.706Z,83.98
2023-05-12T05:28:48.180Z,83.47
2023-05-12T05:31:17.983Z,83.52
2023-05-12T05:33:46.485Z,83.11
2023-05-12T05:36:15.188Z,82.89
2023-05-12T05:38:43.909Z,82.12
2023-05-12T05:41:12.410Z,83.93
2023-05-12T05:43:42.316Z,83.83
2023-05-12T05:46:11.063Z,84.11
2023-05-12T05:48:39.554Z,82.10
2023-05-12T05:51:07.993Z,81.73
2023-05-12T05:53:36.660Z,80.28
2023-05-12T05:56:05.674Z,79.27
2023-05-12T05:58:34.315Z,78.47
2023-05-12T06:01:05.903Z,78.79
2023-05-12T06:03:35.640Z,78.14
2023-05-12T06:06:05.404Z,77.81
2023-05-12T06:08:34.099Z,77.84
2023-05-12T06:11:02.506Z,77.88
2023-05-12T06:13:31.060Z,77.63
2023-05-12T06:15:59.507Z,77.24
2023-05-12T06:18:29.656Z,76.78
2023-05-12T06:20:58.397Z,75.89
2023-05-12T06:23:27.088Z,76.19
2023-05-12T06:25:55.588Z,76.77
2023-05-12T06:28:24.045Z,75.54
2023-05-12T06:30:52.864Z,75.36
2023-05-12T06:33:21.732Z,75.16
2023-05-12T06:35:51.962Z,75.64
2023-05-12T06:38:23.056Z,74.90
2023-05-12T06:40:54.303Z,74.73
2023-05-12T06:43:23.665Z,73.93
2023-05-12T06:45:52.165Z,74.36
2023-05-12T06:48:20.974Z,74.09
2023-05-12T06:50:52.290Z,73.07
2023-05-12T06:53:21.793Z,72.95
2023-05-12T06:55:51.438Z,72.21
2023-05-12T06:58:22.198Z,73.02
2023-05-12T07:00:50.971Z,73.82
2023-05-12T07:03:19.466Z,73.55
2023-05-12T07:05:47.974Z,73.93
2023-05-12T07:08:17.955Z,69.85
2023-05-12T07:10:46.597Z,72.63
2023-05-12T07:13:15.118Z,70.73
2023-05-12T07:15:43.631Z,69.46
2023-05-12T07:18:12.526Z,69.51
2023-05-12T07:20:41.156Z,69.49
2023-05-12T07:23:10.348Z,68.11
2023-05-12T07:25:40.988Z,67.47
2023-05-12T07:28:09.608Z,67.53
2023-05-12T07:30:38.896Z,67.93
2023-05-12T07:33:08.837Z,66.68
2023-05-12T07:35:37.253Z,66.32
2023-05-12T07:38:05.708Z,67.54
2023-05-12T07:40:34.234Z,67.04
2023-05-12T07:43:04.324Z,67.00
2023-05-12T07:45:32.784Z,65.79
2023-05-12T07:48:01.321Z,62.29
2023-05-12T07:50:29.877Z,62.45
2023-05-12T07:52:58.391Z,63.89
2023-05-12T07:55:27.066Z,64.20
2023-05-12T07:57:55.565Z,62.07
2023-05-12T08:00:25.596Z,61.61
2023-05-12T08:02:54.329Z,62.73
2023-05-12T08:05:23.100Z,62.54
2023-05-12T08:07:52.099Z,61.94
2023-05-12T08:10:20.931Z,61.03
2023-05-12T08:12:49.467Z,61.05
2023-05-12T08:15:18.099Z,60.36
2023-05-12T08:17:48.549Z,60.45
2023-05-12T08:20:17.374Z,61.40
2023-05-12T08:22:48.083Z,59.21
2023-05-12T08:25:16.447Z,59.11
2023-05-12T08:27:45.848Z,59.58
2023-05-12T08:30:15.278Z,59.13
2023-05-12T08:32:43.827Z,58.46
2023-05-12T08:35:13.999Z,56.86
2023-05-12T08:37:45.642Z,57.85
2023-05-12T08:40:25.262Z,57.36
2023-05-12T08:43:04.292Z,57.87
2023-05-12T08:45:34.303Z,57.91
2023-05-12T08:48:04.472Z,56.41
2023-05-12T08:50:37.442Z,57.43
2023-05-12T08:53:06.820Z,56.68
2023-05-12T08:55:36.737Z,55.58
2023-05-12T08:58:05.432Z,55.33
2023-05-12T09:00:36.522Z,54.03
2023-05-12T09:03:07.704Z,54.80
2023-05-12T09:05:39.736Z,55.55
2023-05-12T09:08:11.155Z,54.25
2023-05-12T09:10:44.082Z,55.08
2023-05-12T09:13:17.749Z,54.01
2023-05-12T09:15:49.505Z,52.73
2023-05-12T09:18:18.004Z,54.88
2023-05-12T09:20:47.861Z,54.77
2023-05-12T09:23:18.893Z,53.05
2023-05-12T09:25:48.471Z,54.80
2023-05-12T09:28:17.779Z,52.71
2023-05-12T09:30:47.039Z,53.28
2023-05-12T09:33:17.003Z,52.30
2023-05-12T09:35:47.978Z,49.92
2023-05-12T09:38:16.597Z,48.20
2023-05-12T09:40:46.033Z,48.93
2023-05-12T09:43:22.232Z,48.24
2023-05-12T09:45:52.872Z,46.74
2023-05-12T09:48:24.424Z,46.10
2023-05-12T09:50:55.343Z,47.40
2023-05-12T09:53:24.222Z,47.43
2023-05-12T09:55:53.204Z,47.52
2023-05-12T09:58:23.785Z,47.51
2023-05-12T10:03:29.570Z,47.37
2023-05-12T10:06:02.212Z,48.80
2023-05-12T10:08:35.618Z,45.36
2023-05-12T10:11:06.292Z,46.77
2023-05-12T10:13:35.442Z,46.94
2023-05-12T10:16:04.654Z,47.00
2023-05-12T10:18:34.890Z,45.17
2023-05-12T10:21:05.005Z,40.34
2023-05-12T10:23:37.697Z,41.40
2023-05-12T10:26:08.117Z,41.67
2023-05-12T10:28:36.519Z,42.11
2023-05-12T10:31:07.223Z,43.55
2023-05-12T10:33:36.163Z,43.58
2023-05-12T10:36:09.566Z,42.63
2023-05-12T10:38:39.785Z,40.52
2023-05-12T10:41:13.203Z,39.37
2023-05-12T10:43:47.081Z,40.34
2023-05-12T10:46:23.149Z,40.32
2023-05-12T10:48:57.697Z,39.95
2023-05-12T10:51:30.140Z,39.63
2023-05-12T10:54:10.282Z,39.80
2023-05-12T10:56:45.814Z,39.80
2023-05-12T10:59:19.555Z,39.42
2023-05-12T11:02:05.387Z,40.61
2023-05-12T11:04:41.541Z,40.35
2023-05-12T11:07:14.279Z,39.80
2023-05-12T11:09:56.855Z,39.61
2023-05-12T11:12:28.185Z,38.14
2023-05-12T11:14:57.137Z,38.75
2023-05-12T11:17:25.757Z,38.36
2023-05-12T11:19:56.374Z,39.41
2023-05-12T11:22:32.402Z,39.53
2023-05-12T11:25:11.755Z,40.07
2023-05-12T11:27:45.697Z,39.63
2023-05-12T11:30:17.843Z,38.22
2023-05-12T11:32:49.219Z,37.81
2023-05-12T11:35:20.020Z,38.72
2023-05-12T11:37:50.639Z,39.01
2023-05-12T11:40:21.178Z,37.48
2023-05-12T11:42:53.204Z,37.13
2023-05-12T11:45:27.154Z,38.91
2023-05-12T11:48:06.524Z,38.56
2023-05-12T11:50:35.129Z,39.04
2023-05-12T11:53:04.973Z,38.53
2023-05-12T11:55:34.377Z,39.08
2023-05-12T11:58:05.787Z,38.82
2023-05-12T12:00:35.786Z,39.36
2023-05-12T12:03:22.473Z,39.63
2023-05-12T12:06:00.324Z,39.34
2023-05-12T12:08:30.424Z,40.27
2023-05-12T12:11:01.368Z,40.91
2023-05-12T12:13:31.507Z,40.22
2023-05-12T12:16:00.120Z,39.62
2023-05-12T12:18:28.653Z,39.12
2023-05-12T12:20:57.159Z,38.72
2023-05-12T12:23:25.679Z,39.76
2023-05-12T12:25:55.713Z,39.45
2023-05-12T12:28:24.266Z,39.69
2023-05-12T12:30:53.110Z,39.88
2023-05-12T12:33:21.774Z,40.27
2023-05-12T12:35:50.437Z,40.55
2023-05-12T12:38:20.060Z,39.84
2023-05-12T12:40:48.848Z,39.59
2023-05-12T12:43:22.151Z,39.68
2023-05-12T12:45:51.420Z,39.54
2023-05-12T12:48:20.235Z,40.06
2023-05-12T12:50:48.737Z,40.32
2023-05-12T12:53:19.884Z,40.58
2023-05-12T12:55:48.595Z,38.79
2023-05-12T12:58:21.489Z,39.25
2023-05-12T13:00:50.670Z,38.99
2023-05-12T13:03:20.477Z,38.67
2023-05-12T13:05:49.622Z,38.63
2023-05-12T13:08:18.481Z,39.14
2023-05-12T13:10:47.269Z,39.87
2023-05-12T13:13:21.178Z,39.46
2023-05-12T13:15:51.821Z,39.63
2023-05-12T13:18:20.891Z,39.57
2023-05-12T13:20:49.680Z,39.91
2023-05-12T13:23:18.610Z,40.44
2023-05-12T13:25:49.771Z,40.19
2023-05-12T13:28:24.269Z,40.73
2023-05-12T13:30:54.114Z,40.18
2023-05-12T13:33:23.726Z,40.14
2023-05-12T13:35:52.723Z,38.75
2023-05-12T13:38:22.622Z,38.14
2023-05-12T13:40:51.316Z,37.99
2023-05-12T13:43:22.266Z,37.64
2023-05-12T13:45:51.249Z,38.37
2023-05-12T13:48:19.973Z,37.72
2023-05-12T13:50:49.131Z,37.59
2023-05-12T13:53:18.243Z,38.00
2023-05-12T13:55:47.168Z,37.38
2023-05-12T13:58:18.631Z,37.29
2023-05-12T14:00:49.649Z,37.41
2023-05-12T14:03:18.377Z,37.66
2023-05-12T14:05:46.761Z,36.66
2023-05-12T14:08:15.489Z,37.16
2023-05-12T14:10:45.322Z,37.21
2023-05-12T14:13:14.111Z,37.73
2023-05-12T14:15:49.406Z,37.53
2023-05-12T14:18:20.597Z,37.31
2023-05-12T14:20:49.512Z,37.58
2023-05-12T14:23:18.104Z,36.61
2023-05-12T14:25:46.710Z,36.97
2023-05-12T14:28:15.292Z,36.70
2023-05-12T14:30:45.631Z,37.51
2023-05-12T14:33:14.300Z,37.30
2023-05-12T14:35:52.889Z,37.15
2023-05-12T14:38:28.869Z,37.41
2023-05-12T14:40:57.696Z,37.35
2023-05-12T14:43:26.351Z,37.19
2023-05-12T14:45:55.708Z,37.08
2023-05-12T14:48:26.298Z,37.45
2023-05-12T14:50:56.510Z,37.21
2023-05-12T14:53:25.825Z,37.78
2023-05-12T14:55:54.309Z,37.28
2023-05-12T14:58:24.521Z,37.02
2023-05-12T15:00:53.767Z,36.84
2023-05-12T15:03:22.693Z,37.21
2023-05-12T15:08:24.812Z,36.25
2023-05-12T15:10:53.300Z,36.34
2023-05-12T15:13:22.909Z,36.01
2023-05-12T15:15:55.201Z,35.90
2023-05-12T15:18:25.602Z,35.85
2023-05-12T15:20:54.325Z,35.99
2023-05-12T15:23:24.536Z,35.94
2023-05-12T15:25:53.020Z,36.05
2023-05-12T15:28:21.710Z,36.11
2023-05-12T15:30:56.873Z,36.08
2023-05-12T15:33:26.488Z,36.69
2023-05-12T15:35:55.362Z,36.67
2023-05-12T15:38:25.620Z,36.64
2023-05-12T15:40:54.181Z,36.56
2023-05-12T15:43:22.693Z,37.02
2023-05-12T15:45:51.153Z,36.72
2023-05-12T15:48:19.630Z,36.83
2023-05-12T15:50:48.219Z,37.25
2023-05-12T15:53:17.335Z,36.49
2023-05-12T15:55:47.385Z,36.67
2023-05-12T15:58:16.085Z,36.80
2023-05-12T16:00:44.858Z,37.02
2023-05-12T16:03:13.626Z,37.90
2023-05-12T16:05:42.369Z,37.96
2023-05-12T16:08:11.012Z,37.92
2023-05-12T16:10:40.105Z,38.55
2023-05-12T16:13:10.577Z,39.06
2023-05-12T16:15:39.121Z,39.11
2023-05-12T16:18:10.956Z,38.66
2023-05-12T16:20:41.932Z,38.89
2023-05-12T16:23:11.050Z,38.98
2023-05-12T16:25:41.175Z,39.30
2023-05-12T16:28:11.378Z,39.34
2023-05-12T16:30:40.090Z,37.89
2023-05-12T16:33:09.035Z,38.55
2023-05-12T16:35:40.316Z,38.65
2023-05-12T16:38:09.020Z,38.77
2023-05-12T16:40:37.604Z,38.85
2023-05-12T16:43:06.403Z,39.20
2023-05-12T16:45:37.135Z,38.50
2023-05-12T16:48:06.656Z,39.11
2023-05-12T16:50:35.963Z,38.89
2023-05-12T16:53:04.622Z,38.84
2023-05-12T16:55:33.656Z,37.92
2023-05-12T16:58:02.332Z,37.67
2023-05-12T17:00:31.733Z,37.62
2023-05-12T17:03:04.426Z,38.11
2023-05-12T17:05:33.525Z,37.93
2023-05-12T17:08:02.042Z,37.80
2023-05-12T17:10:30.618Z,37.78
2023-05-12T17:12:59.502Z,37.91
2023-05-12T17:15:28.121Z,38.34
2023-05-12T17:17:56.962Z,38.20
2023-05-12T17:20:27.294Z,38.02
2023-05-12T17:22:55.696Z,38.85
2023-05-12T17:25:24.397Z,38.21
2023-05-12T17:27:52.966Z,38.63
2023-05-12T17:30:21.816Z,39.13
2023-05-12T17:32:50.760Z,39.82
2023-05-12T17:35:19.369Z,39.67
2023-05-12T17:37:56.232Z,39.88
2023-05-12T17:40:25.027Z,40.98
2023-05-12T17:42:53.400Z,40.93
2023-05-12T17:45:22.162Z,41.64
2023-05-12T17:47:51.425Z,41.18
2023-05-12T17:50:20.023Z,40.55
2023-05-12T17:52:49.913Z,41.63
2023-05-12T17:55:18.916Z,41.18
2023-05-12T17:57:49.514Z,39.97
2023-05-12T18:00:18.635Z,40.77
2023-05-12T18:02:47.322Z,40.79
2023-05-12T18:05:16.071Z,41.00
2023-05-12T18:07:44.594Z,41.22
2023-05-12T18:10:14.681Z,41.35
2023-05-12T18:12:43.215Z,41.41
2023-05-12T18:15:12.656Z,41.38
2023-05-12T18:17:41.603Z,43.63
2023-05-12T18:20:13.254Z,42.13
2023-05-12T18:22:41.798Z,43.35
2023-05-12T18:25:13.098Z,41.83
2023-05-12T18:27:49.078Z,41.95
2023-05-12T18:30:24.612Z,42.46
2023-05-12T18:33:01.511Z,42.38
2023-05-12T18:35:37.625Z,42.82
2023-05-12T18:38:13.857Z,43.28
2023-05-12T18:40:43.003Z,42.75
2023-05-12T18:43:13.050Z,42.72
2023-05-12T18:45:41.750Z,43.03
2023-05-12T18:48:15.125Z,43.20
2023-05-12T18:50:49.638Z,43.19
2023-05-12T18:53:23.700Z,43.73
2023-05-12T18:55:52.808Z,43.91
2023-05-12T18:58:23.469Z,44.37
2023-05-12T19:00:52.567Z,44.94
2023-05-12T19:03:21.933Z,45.21
2023-05-12T19:05:50.868Z,44.78
2023-05-12T19:08:20.211Z,45.70
2023-05-12T19:10:49.672Z,45.77
2023-05-12T19:13:18.171Z,45.71
2023-05-12T19:15:48.111Z,45.45
2023-05-12T19:18:17.390Z,45.38
2023-05-12T19:20:45.861Z,45.52
2023-05-12T19:23:14.401Z,45.65
2023-05-12T19:25:43.610Z,45.77
2023-05-12T19:28:12.156Z,45.92
2023-05-12T19:30:40.641Z,46.45
2023-05-12T19:33:10.600Z,46.20
2023-05-12T19:35:39.243Z,46.27
2023-05-12T19:38:07.639Z,46.98
2023-05-12T19:40:36.105Z,46.84
2023-05-12T19:43:05.368Z,46.73
2023-05-12T19:45:34.560Z,47.05
2023-05-12T19:48:03.254Z,48.60
2023-05-12T19:50:33.328Z,48.27
2023-05-12T19:53:01.727Z,47.91
2023-05-12T19:55:30.376Z,48.21
2023-05-12T19:57:59.049Z,48.51
2023-05-12T20:00:27.554Z,48.85
2023-05-12T20:02:56.192Z,49.25
2023-05-12T20:05:24.911Z,48.96
2023-05-12T20:07:54.763Z,49.59
2023-05-12T20:10:23.221Z,49.73
2023-05-12T20:12:52.409Z,49.52
2023-05-12T20:15:21.231Z,49.13
2023-05-12T20:17:50.167Z,49.16
2023-05-12T20:20:19.178Z,49.65
2023-05-12T20:22:47.596Z,49.18
2023-05-12T20:25:18.303Z,49.44
2023-05-12T20:27:47.077Z,49.60
2023-05-12T20:30:16.340Z,50.37
2023-05-12T20:32:45.054Z,50.64
2023-05-12T20:35:13.752Z,50.86
2023-05-12T20:37:42.196Z,51.90
2023-05-12T20:40:11.603Z,51.93
2023-05-12T20:42:41.866Z,51.67
2023-05-12T20:45:11.514Z,51.56
2023-05-12T20:47:40.005Z,51.52
2023-05-12T20:50:09.463Z,51.81
2023-05-12T20:52:38.857Z,52.09
2023-05-12T20:55:08.774Z,52.50
2023-05-12T20:57:38.057Z,53.59
2023-05-12T21:00:10.915Z,52.85
2023-05-12T21:02:39.642Z,52.81
2023-05-12T21:05:08.576Z,52.98
2023-05-12T21:07:37.232Z,53.35
2023-05-12T21:10:06.574Z,54.75
2023-05-12T21:12:35.244Z,53.70
2023-05-12T21:15:04.190Z,54.37
2023-05-12T21:17:34.105Z,55.32
2023-05-12T21:20:02.622Z,55.14
2023-05-12T21:22:31.158Z,56.83
2023-05-12T21:24:59.693Z,56.81
2023-05-12T21:27:28.961Z,57.75
2023-05-12T21:29:58.108Z,57.04
2023-05-12T21:32:26.895Z,58.67
2023-05-12T21:34:57.426Z,56.95
2023-05-12T21:37:25.969Z,56.12
2023-05-12T21:39:54.456Z,56.38
2023-05-12T21:42:22.851Z,56.12
2023-05-12T21:44:51.952Z,56.35
2023-05-12T21:47:20.557Z,58.09
2023-05-12T21:49:49.161Z,56.74
2023-05-12T21:52:19.138Z,57.52
2023-05-12T21:54:48.138Z,58.04
2023-05-12T21:57:16.771Z,57.75
2023-05-12T21:59:45.218Z,57.05
2023-05-12T22:02:14.152Z,57.09
2023-05-12T22:04:42.649Z,57.64
2023-05-12T22:07:11.095Z,57.74
2023-05-12T22:09:41.023Z,58.27
2023-05-12T22:12:13.778Z,57.94
2023-05-12T22:14:42.248Z,58.08
2023-05-12T22:17:10.753Z,57.83
2023-05-12T22:19:39.258Z,58.99
2023-05-12T22:22:07.975Z,58.75
2023-05-12T22:24:36.669Z,58.92
2023-05-12T22:27:07.357Z,58.60
2023-05-12T22:29:35.927Z,58.21
2023-05-12T22:32:04.449Z,58.33
2023-05-12T22:34:32.851Z,58.56
2023-05-12T22:37:01.665Z,58.60
2023-05-12T22:39:30.151Z,58.74
2023-05-12T22:41:58.652Z,59.71
2023-05-12T22:44:28.558Z,59.15
2023-05-12T22:46:57.056Z,60.68
2023-05-12T22:49:25.809Z,59.52
2023-05-12T22:51:54.277Z,60.87
2023-05-12T22:54:22.913Z,60.47
2023-05-12T22:56:51.303Z,60.36
2023-05-12T22:59:19.979Z,60.38
2023-05-12T23:01:50.035Z,60.34
2023-05-12T23:04:18.651Z,59.90
2023-05-12T23:06:47.444Z,60.42
2023-05-12T23:09:16.377Z,59.80
2023-05-12T23:11:44.858Z,60.21
2023-05-12T23:14:13.441Z,60.86
2023-05-12T23:16:41.954Z,60.55
2023-05-12T23:19:11.966Z,61.07
2023-05-12T23:21:40.684Z,60.84
2023-05-12T23:24:09.786Z,62.05
2023-05-12T23:26:38.217Z,62.25
2023-05-12T23:29:06.750Z,62.99
2023-05-12T23:31:35.329Z,61.79
2023-05-12T23:34:03.836Z,63.09
2023-05-12T23:36:34.321Z,63.52
2023-05-12T23:39:03.093Z,62.38
2023-05-12T23:41:33.397Z,62.87
2023-05-12T23:44:02.486Z,62.87
2023-05-12T23:46:30.985Z,62.54
2023-05-12T23:48:59.972Z,63.11
2023-05-12T23:51:28.728Z,63.33
2023-05-12T23:53:58.678Z,63.57
2023-05-12T23:56:27.126Z,64.81
2023-05-12T23:58:55.612Z,63.09
